Time;durP1;ratioP1;P1;durP2;ratioP2;P2;SDS_P1;SDS_P2;PMS_P1;PMS_P2;Temp;Humidity;BMP_temperature;BMP_pressure;BME280_temperature;BME280_humidity;BME280_pressure;Samples;Min_cycle;Max_cycle;Signal;HPM_P1;HPM_P2
2024/01/14 00:02:07;;;;;;;17.42;2.58;;;;;;;4.71;100.00;101724.88;5054658;28;20090;-85
2024/01/14 00:04:33;;;;;;;10.20;2.78;;;;;;;4.74;100.00;101721.25;5053583;28;20028;-85
2024/01/14 00:06:58;;;;;;;7.28;2.28;;;;;;;4.68;100.00;101718.94;5053998;28;20032;-84
2024/01/14 00:09:24;;;;;;;10.07;2.90;;;;;;;4.64;100.00;101715.59;5054577;28;20128;-85
2024/01/14 00:11:49;;;;;;;9.48;2.53;;;;;;;4.64;100.00;101712.94;5053658;28;20377;-84
2024/01/14 00:14:15;;;;;;;7.82;2.20;;;;;;;4.66;100.00;101718.16;5054308;28;20134;-85
2024/01/14 00:16:40;;;;;;;6.07;2.28;;;;;;;4.69;100.00;101716.22;5052419;28;20519;-85
2024/01/14 00:19:06;;;;;;;7.65;2.20;;;;;;;4.68;100.00;101700.47;5054487;28;20404;-85
2024/01/14 00:21:34;;;;;;;10.18;2.55;;;;;;;4.65;100.00;101719.94;5054138;28;20025;-80
2024/01/14 00:23:59;;;;;;;9.40;2.58;;;;;;;4.60;100.00;101706.16;5054375;28;20476;-85
2024/01/14 00:26:27;;;;;;;6.93;2.40;;;;;;;4.56;100.00;101712.50;5052658;28;20033;-85
2024/01/14 00:28:57;;;;;;;6.72;2.22;;;;;;;4.55;100.00;101713.44;5053246;28;20080;-85
2024/01/14 00:31:23;;;;;;;12.82;3.10;;;;;;;4.55;100.00;101705.53;5053791;28;20507;-85
2024/01/14 00:33:49;;;;;;;7.63;2.47;;;;;;;4.57;100.00;101712.44;5053395;28;20071;-85
2024/01/14 00:36:16;;;;;;;17.95;3.03;;;;;;;4.59;100.00;101702.66;5053321;28;20088;-86
2024/01/14 00:38:41;;;;;;;10.48;2.55;;;;;;;4.61;100.00;101704.38;5053276;28;20032;-85
2024/01/14 00:41:07;;;;;;;9.75;2.83;;;;;;;4.58;100.00;101693.06;5053432;28;20366;-85
2024/01/14 00:43:32;;;;;;;7.85;2.92;;;;;;;4.57;100.00;101695.78;5053659;28;20029;-85
2024/01/14 00:45:58;;;;;;;8.80;3.28;;;;;;;4.59;100.00;101697.38;5053083;28;20033;-85
2024/01/14 00:48:23;;;;;;;13.05;3.10;;;;;;;4.61;100.00;101683.28;5054088;28;20033;-85
2024/01/14 00:50:48;;;;;;;8.07;2.60;;;;;;;4.61;100.00;101672.72;5051896;28;20029;-85
2024/01/14 00:53:14;;;;;;;9.70;2.65;;;;;;;4.61;100.00;101665.66;5053721;28;20043;-85
2024/01/14 00:55:39;;;;;;;6.78;2.65;;;;;;;4.61;100.00;101664.81;5051847;28;20047;-85
2024/01/14 00:58:05;;;;;;;15.90;3.45;;;;;;;4.63;100.00;101665.59;5053787;28;20102;-84
2024/01/14 01:00:31;;;;;;;13.07;3.80;;;;;;;4.55;100.00;101658.94;5053838;28;20165;-84
2024/01/14 01:02:56;;;;;;;14.88;3.20;;;;;;;4.54;100.00;101654.59;5053518;28;20425;-85
2024/01/14 01:05:21;;;;;;;12.40;3.53;;;;;;;4.54;100.00;101654.59;5054664;28;20155;-84
2024/01/14 01:07:47;;;;;;;7.15;3.17;;;;;;;4.52;100.00;101645.06;5061416;28;20033;-84
2024/01/14 01:10:13;;;;;;;11.05;3.33;;;;;;;4.55;100.00;101647.53;5061584;28;20071;-84
2024/01/14 01:12:38;;;;;;;7.63;3.22;;;;;;;4.57;100.00;101643.91;5067842;28;20036;-79
2024/01/14 01:15:08;;;;;;;12.82;3.33;;;;;;;4.62;100.00;101642.81;5050304;28;20522;-83
2024/01/14 01:17:34;;;;;;;8.15;3.55;;;;;;;4.58;100.00;101635.06;5060676;28;20025;-85
2024/01/14 01:20:00;;;;;;;7.85;2.90;;;;;;;4.59;100.00;101635.91;5059815;28;20321;-85
2024/01/14 01:22:25;;;;;;;5.75;2.90;;;;;;;4.59;100.00;101635.91;5057126;28;20025;-85
2024/01/14 01:24:51;;;;;;;11.50;3.58;;;;;;;4.58;100.00;101628.91;5053217;28;20021;-85
2024/01/14 01:27:16;;;;;;;9.45;3.50;;;;;;;4.60;100.00;101629.72;5051893;28;20025;-85
2024/01/14 01:29:42;;;;;;;8.75;3.85;;;;;;;4.62;100.00;101624.34;5052388;28;20108;-82
2024/01/14 01:32:09;;;;;;;8.68;3.40;;;;;;;4.61;100.00;101620.00;5052669;28;20039;-84
2024/01/14 01:34:35;;;;;;;11.27;3.55;;;;;;;4.60;100.00;101613.91;5052614;28;20445;-85
2024/01/14 01:37:00;;;;;;;9.15;3.58;;;;;;;4.63;100.00;101612.84;5051938;28;20044;-84
2024/01/14 01:39:25;;;;;;;15.27;3.83;;;;;;;4.62;100.00;101611.19;5051620;28;20057;-84
2024/01/14 01:41:51;;;;;;;11.32;4.20;;;;;;;4.57;100.00;101604.38;5050328;28;20390;-85
2024/01/14 01:44:16;;;;;;;11.55;3.67;;;;;;;4.54;100.00;101599.25;5051641;28;20025;-84
2024/01/14 01:46:42;;;;;;;10.48;3.97;;;;;;;4.51;100.00;101593.28;5052421;28;20472;-84
2024/01/14 01:49:09;;;;;;;9.65;3.80;;;;;;;4.46;100.00;101585.63;5050898;28;20427;-85
2024/01/14 01:51:35;;;;;;;12.30;4.25;;;;;;;4.41;100.00;101585.88;5051087;28;20029;-84
2024/01/14 01:54:01;;;;;;;8.98;4.13;;;;;;;4.35;100.00;101596.72;5052021;28;20048;-85
2024/01/14 01:56:27;;;;;;;11.50;4.05;;;;;;;4.26;100.00;101602.47;5051802;28;20061;-85
2024/01/14 01:58:53;;;;;;;11.15;4.60;;;;;;;4.18;100.00;101602.88;5051518;28;20445;-84
2024/01/14 02:01:21;;;;;;;9.95;4.03;;;;;;;4.13;100.00;101598.78;5052007;28;20214;-84
2024/01/14 02:03:53;;;;;;;11.25;4.30;;;;;;;4.12;100.00;101600.56;5050712;28;20036;-83
2024/01/14 02:06:20;;;;;;;12.73;4.50;;;;;;;4.12;100.00;101597.94;5051769;28;20025;-84
2024/01/14 02:08:47;;;;;;;12.88;3.78;;;;;;;4.10;100.00;101594.50;5052187;28;20036;-84
2024/01/14 02:11:13;;;;;;;10.27;4.28;;;;;;;4.15;100.00;101600.41;5050404;28;20035;-84
2024/01/14 02:13:38;;;;;;;9.20;4.50;;;;;;;4.20;100.00;101597.53;5052043;28;20025;-84
2024/01/14 02:16:04;;;;;;;11.38;4.43;;;;;;;4.22;100.00;101593.91;5050991;28;20024;-83
2024/01/14 02:18:29;;;;;;;9.27;4.47;;;;;;;4.24;100.00;101594.66;5050297;28;20033;-83
2024/01/14 02:20:57;;;;;;;11.68;4.65;;;;;;;4.27;100.00;101588.38;5051183;28;20021;-83
2024/01/14 02:23:25;;;;;;;12.15;4.22;;;;;;;4.27;100.00;101587.53;5051754;28;20465;-83
2024/01/14 02:25:51;;;;;;;14.00;4.82;;;;;;;4.28;100.00;101592.72;5051052;28;20162;-81
2024/01/14 02:28:19;;;;;;;10.57;5.32;;;;;;;4.28;100.00;101591.88;5051607;28;20044;-83
2024/01/14 02:30:48;;;;;;;9.63;4.93;;;;;;;4.31;100.00;101581.16;5050300;28;20438;-83
2024/01/14 02:33:13;;;;;;;11.65;5.18;;;;;;;4.27;100.00;101583.13;5051150;28;20101;-83
2024/01/14 02:35:39;;;;;;;10.07;4.40;;;;;;;4.23;100.00;101586.84;5051586;28;20187;-83
2024/01/14 02:38:06;;;;;;;12.43;3.15;;;;;;;4.20;100.00;101574.66;5051108;28;20465;-83
2024/01/14 02:40:32;;;;;;;9.95;3.22;;;;;;;4.13;100.00;101568.00;5051464;28;20029;-83
2024/01/14 02:42:57;;;;;;;4.70;2.30;;;;;;;4.08;100.00;101562.16;5049853;28;20025;-83
2024/01/14 02:45:23;;;;;;;10.15;2.25;;;;;;;4.02;100.00;101562.47;5051313;28;20032;-84
2024/01/14 02:47:48;;;;;;;6.88;2.00;;;;;;;3.96;100.00;101561.00;5052022;28;20072;-84
2024/01/14 02:50:13;;;;;;;5.00;1.90;;;;;;;3.89;100.00;101547.28;5050786;28;20442;-83
2024/01/14 02:52:39;;;;;;;6.05;2.10;;;;;;;3.86;100.00;101546.59;5053381;28;20029;-84
2024/01/14 02:55:04;;;;;;;7.22;1.98;;;;;;;3.83;100.00;101539.69;5054977;28;20036;-83
2024/01/14 02:57:30;;;;;;;9.40;1.85;;;;;;;3.81;100.00;101545.97;5055328;28;20033;-83
2024/01/14 02:59:56;;;;;;;7.43;1.85;;;;;;;3.80;100.00;101547.75;5053843;28;20025;-79
2024/01/14 03:02:22;;;;;;;11.25;2.47;;;;;;;3.83;100.00;101544.13;5055650;28;20029;-84
2024/01/14 03:04:47;;;;;;;4.88;1.60;;;;;;;3.82;100.00;101540.66;5055613;28;20044;-84
2024/01/14 03:07:13;;;;;;;15.20;2.30;;;;;;;3.81;100.00;101538.94;5055229;28;20056;-84
2024/01/14 03:09:38;;;;;;;10.38;1.90;;;;;;;3.78;100.00;101531.19;5053623;28;20166;-84
2024/01/14 03:12:03;;;;;;;9.45;2.25;;;;;;;3.76;100.00;101522.50;5055008;28;20079;-83
2024/01/14 03:14:29;;;;;;;6.78;1.95;;;;;;;3.78;100.00;101518.03;5037111;28;20476;-84
2024/01/14 03:16:54;;;;;;;7.97;1.90;;;;;;;3.75;100.00;101515.56;5054986;28;20437;-84
2024/01/14 03:19:20;;;;;;;9.60;2.25;;;;;;;3.71;100.00;101506.94;5054513;28;20032;-84
2024/01/14 03:21:48;;;;;;;5.82;1.92;;;;;;;3.69;100.00;101518.50;5055081;28;20106;-84
2024/01/14 03:24:13;;;;;;;7.88;2.15;;;;;;;3.69;100.00;101515.88;5053236;28;20072;-83
2024/01/14 03:26:38;;;;;;;16.17;2.60;;;;;;;3.68;100.00;101509.72;5054868;28;20438;-84
2024/01/14 03:29:04;;;;;;;7.03;2.60;;;;;;;3.66;100.00;101510.75;5053015;28;20029;-83
2024/01/14 03:31:29;;;;;;;6.55;2.40;;;;;;;3.60;100.00;101501.41;5054397;28;20025;-84
2024/01/14 03:33:54;;;;;;;7.65;2.35;;;;;;;3.56;100.00;101497.22;5053081;28;20032;-83
2024/01/14 03:36:20;;;;;;;12.13;2.78;;;;;;;3.55;100.00;101499.91;5053946;28;20212;-84
2024/01/14 03:38:45;;;;;;;8.45;2.95;;;;;;;3.51;100.00;101494.81;5054765;28;20476;-84
2024/01/14 03:41:11;;;;;;;11.38;3.70;;;;;;;3.49;100.00;101493.19;5053913;28;20120;-83
2024/01/14 03:43:37;;;;;;;9.95;3.67;;;;;;;3.49;100.00;101494.03;5054510;28;20048;-84
2024/01/14 03:46:02;;;;;;;6.82;4.00;;;;;;;3.55;100.00;101494.66;5054136;28;20426;-81
2024/01/14 03:48:28;;;;;;;12.43;4.45;;;;;;;3.60;100.00;101493.50;5054793;28;20036;-84
2024/01/14 03:50:53;;;;;;;9.98;4.60;;;;;;;3.60;100.00;101493.50;5037277;28;20032;-84
2024/01/14 03:53:18;;;;;;;11.88;4.35;;;;;;;3.60;100.00;101482.97;5054762;28;20117;-83
2024/01/14 03:55:47;;;;;;;11.13;4.05;;;;;;;3.60;100.00;101476.84;5054327;28;20318;-83
2024/01/14 03:58:13;;;;;;;9.48;3.83;;;;;;;3.58;100.00;101476.91;5054191;28;20025;-83
2024/01/14 04:00:38;;;;;;;10.15;3.65;;;;;;;3.55;100.00;101478.88;5055219;28;20040;-83
2024/01/14 04:03:04;;;;;;;11.15;4.32;;;;;;;3.51;100.00;101478.19;5054668;28;20134;-83
2024/01/14 04:05:29;;;;;;;9.05;4.35;;;;;;;3.50;100.00;101476.47;5054333;28;20345;-84
2024/01/14 04:07:54;;;;;;;10.93;5.03;;;;;;;3.48;100.00;101473.91;5052923;28;20432;-84
2024/01/14 04:10:20;;;;;;;8.48;4.97;;;;;;;3.48;100.00;101476.56;5052387;28;20523;-83
2024/01/14 04:12:51;;;;;;;9.82;5.57;;;;;;;3.55;100.00;101479.72;5054416;28;20021;-84
2024/01/14 04:15:20;;;;;;;14.45;5.68;;;;;;;3.54;100.00;101467.50;5052732;28;20136;-84
2024/01/14 04:17:46;;;;;;;11.93;5.93;;;;;;;3.55;100.00;101457.81;5054057;28;20064;-84
2024/01/14 04:20:12;;;;;;;14.95;5.43;;;;;;;3.54;100.00;101454.34;5054056;28;20416;-83
2024/01/14 04:22:38;;;;;;;12.10;5.63;;;;;;;3.49;100.00;101451.94;5054285;28;20037;-84
2024/01/14 04:25:03;;;;;;;9.85;4.43;;;;;;;3.46;100.00;101445.97;5053014;28;20170;-84
2024/01/14 04:27:29;;;;;;;7.95;4.82;;;;;;;3.42;100.00;101439.16;5052259;28;20069;-83
2024/01/14 04:29:54;;;;;;;13.25;5.40;;;;;;;3.37;100.00;101436.75;5052659;28;20029;-84
2024/01/14 04:32:19;;;;;;;9.98;5.40;;;;;;;3.30;100.00;101438.00;5053626;28;20032;-83
2024/01/14 04:34:45;;;;;;;12.15;5.40;;;;;;;3.26;100.00;101441.72;5054109;28;20111;-84
2024/01/14 04:37:10;;;;;;;9.43;5.22;;;;;;;3.20;100.00;101442.88;5053106;28;20060;-80
2024/01/14 04:39:35;;;;;;;10.65;5.10;;;;;;;3.15;100.00;101435.22;5053558;28;20086;-84
2024/01/14 04:42:01;;;;;;;17.27;4.90;;;;;;;3.12;100.00;101435.38;5053616;28;20025;-84
2024/01/14 04:44:26;;;;;;;20.90;6.35;;;;;;;3.12;100.00;101437.16;5053501;28;20029;-84
2024/01/14 04:46:52;;;;;;;24.67;11.93;;;;;;;3.10;100.00;101434.59;5053474;28;20398;-84
2024/01/14 04:49:17;;;;;;;21.85;11.50;;;;;;;3.08;100.00;101427.72;5053360;28;20096;-83
2024/01/14 04:51:42;;;;;;;28.63;12.00;;;;;;;3.05;100.00;101430.50;5053466;28;20025;-83
2024/01/14 04:54:08;;;;;;;28.10;12.43;;;;;;;3.02;100.00;101430.66;5053609;28;20061;-83
2024/01/14 04:56:33;;;;;;;23.98;12.30;;;;;;;2.99;100.00;101429.88;5051569;28;20041;-83
2024/01/14 04:58:59;;;;;;;30.63;14.07;;;;;;;2.97;100.00;101429.09;5053616;28;20035;-82
2024/01/14 05:01:24;;;;;;;31.55;14.55;;;;;;;2.95;100.00;101422.22;5053184;28;20021;-83
2024/01/14 05:03:49;;;;;;;33.13;15.73;;;;;;;2.92;100.00;101419.75;5053136;28;20462;-83
2024/01/14 05:06:15;;;;;;;33.03;15.27;;;;;;;2.87;100.00;101413.88;5052876;28;20055;-82
2024/01/14 05:08:43;;;;;;;34.05;15.63;;;;;;;2.82;100.00;101419.31;5035211;28;20067;-83
2024/01/14 05:11:09;;;;;;;33.92;15.20;;;;;;;2.75;100.00;101412.69;5053445;28;20040;-83
2024/01/14 05:13:35;;;;;;;36.03;15.60;;;;;;;2.70;100.00;101415.50;5051496;28;20112;-83
2024/01/14 05:16:00;;;;;;;35.53;16.27;;;;;;;2.67;100.00;101409.56;5050688;28;20378;-83
2024/01/14 05:18:26;;;;;;;38.17;15.95;;;;;;;2.63;100.00;101404.47;5052353;28;20029;-83
2024/01/14 05:20:52;;;;;;;32.80;15.18;;;;;;;2.61;100.00;101405.44;5051475;28;20029;-83
2024/01/14 05:23:18;;;;;;;32.50;14.90;;;;;;;2.57;100.00;101399.50;5052052;28;20369;-80
2024/01/14 05:25:43;;;;;;;35.58;15.82;;;;;;;2.55;100.00;101390.00;5052797;28;20150;-82
2024/01/14 05:28:09;;;;;;;39.17;15.70;;;;;;;2.50;100.00;101398.09;5052952;28;20029;-83
2024/01/14 05:30:34;;;;;;;38.40;16.75;;;;;;;2.48;100.00;101386.81;5052101;28;20503;-83
2024/01/14 05:33:01;;;;;;;36.67;16.58;;;;;;;2.45;100.00;101387.81;5052569;28;20077;-83
2024/01/14 05:35:26;;;;;;;40.00;16.55;;;;;;;2.42;100.00;101387.94;5034396;28;20021;-83
2024/01/14 05:37:52;;;;;;;38.83;15.77;;;;;;;2.38;100.00;101375.88;5052541;28;20121;-82
2024/01/14 05:40:17;;;;;;;37.42;15.70;;;;;;;2.39;100.00;101376.72;5052418;28;20035;-83
2024/01/14 05:42:43;;;;;;;40.75;16.02;;;;;;;2.37;100.00;101376.81;5051712;28;20112;-83
2024/01/14 05:45:12;;;;;;;42.58;16.27;;;;;;;2.37;100.00;101370.69;5051214;28;20129;-83
2024/01/14 05:47:38;;;;;;;32.67;14.85;;;;;;;2.35;100.00;101362.91;5034621;28;20025;-83
2024/01/14 05:50:04;;;;;;;17.85;8.13;;;;;;;2.38;100.00;101362.75;5051169;28;20036;-83
2024/01/14 05:52:29;;;;;;;13.30;5.68;;;;;;;2.52;100.00;101362.06;5052248;28;20036;-83
2024/01/14 05:54:54;;;;;;;7.45;4.80;;;;;;;2.64;100.00;101356.25;5051286;28;20076;-83
2024/01/14 05:57:22;;;;;;;8.25;4.28;;;;;;;2.80;100.00;101363.38;5052377;28;20032;-83
2024/01/14 05:59:48;;;;;;;9.02;4.22;;;;;;;2.94;100.00;101354.78;5034633;28;20520;-84
2024/01/14 06:02:13;;;;;;;5.75;3.33;;;;;;;3.06;100.00;101355.94;5052061;28;20028;-84
2024/01/14 06:04:38;;;;;;;17.60;4.25;;;;;;;3.16;100.00;101351.91;5052203;28;20124;-84
2024/01/14 06:07:04;;;;;;;10.45;3.50;;;;;;;3.30;100.00;101348.56;5051052;28;20090;-84
2024/01/14 06:09:29;;;;;;;9.10;3.85;;;;;;;3.41;100.00;101330.47;5051271;28;20029;-83
2024/01/14 06:11:54;;;;;;;8.40;3.60;;;;;;;3.51;100.00;101326.41;5050988;28;20028;-84
2024/01/14 06:14:20;;;;;;;7.95;4.15;;;;;;;3.60;100.00;101327.72;5050363;28;20082;-84
2024/01/14 06:16:45;;;;;;;9.93;3.80;;;;;;;3.71;100.00;101313.97;5049707;28;20033;-84
2024/01/14 06:19:11;;;;;;;8.82;3.47;;;;;;;3.78;100.00;101310.06;5050141;28;20406;-83
2024/01/14 06:21:43;;;;;;;7.97;3.50;;;;;;;3.84;100.00;101314.16;5050281;28;20410;-84
2024/01/14 06:24:09;;;;;;;12.20;3.42;;;;;;;3.89;100.00;101306.84;5051650;28;20472;-84
2024/01/14 06:26:35;;;;;;;8.00;3.90;;;;;;;3.87;100.00;101308.72;5051318;28;20082;-82
2024/01/14 06:29:00;;;;;;;11.32;3.28;;;;;;;3.82;100.00;101301.06;5052645;28;20103;-83
2024/01/14 06:31:26;;;;;;;5.38;3.40;;;;;;;3.78;100.00;101290.81;5051793;28;20021;-83
2024/01/14 06:33:51;;;;;;;8.50;3.60;;;;;;;3.74;100.00;101289.25;5051834;28;20426;-83
2024/01/14 06:36:20;;;;;;;7.43;3.80;;;;;;;3.68;100.00;101287.81;5052061;28;20064;-83
2024/01/14 06:38:46;;;;;;;9.30;3.60;;;;;;;3.66;100.00;101293.16;5051058;28;20060;-82
2024/01/14 06:41:19;;;;;;;9.70;3.33;;;;;;;3.68;100.00;101288.66;5052484;28;20033;-83
2024/01/14 06:43:47;;;;;;;6.07;3.47;;;;;;;3.70;100.00;101283.31;5052234;28;20029;-83
2024/01/14 06:46:13;;;;;;;7.13;3.30;;;;;;;3.67;100.00;101283.47;5051704;28;20032;-82
2024/01/14 06:48:38;;;;;;;7.72;3.65;;;;;;;3.58;100.00;101274.28;5050475;28;20033;-83
2024/01/14 06:51:04;;;;;;;6.57;3.45;;;;;;;3.48;100.00;101276.59;5034398;28;20449;-83
2024/01/14 06:53:30;;;;;;;13.05;3.65;;;;;;;3.41;100.00;101280.47;5051842;28;20094;-83
2024/01/14 06:55:55;;;;;;;5.68;3.50;;;;;;;3.38;100.00;101279.81;5051300;28;20037;-83
2024/01/14 06:58:21;;;;;;;8.18;3.97;;;;;;;3.35;100.00;101272.91;5051334;28;20033;-84
2024/01/14 07:00:46;;;;;;;5.20;3.40;;;;;;;3.41;100.00;101269.09;5049603;28;20029;-83
2024/01/14 07:03:11;;;;;;;5.10;3.70;;;;;;;3.42;100.00;101270.78;5051357;28;20040;-83
2024/01/14 07:05:37;;;;;;;10.10;4.03;;;;;;;3.43;100.00;101272.50;5051525;28;20032;-83
2024/01/14 07:08:04;;;;;;;5.25;3.50;;;;;;;3.47;100.00;101263.50;5050173;28;20480;-82
2024/01/14 07:10:30;;;;;;;9.73;3.58;;;;;;;3.47;100.00;101260.88;5051279;28;20166;-83
2024/01/14 07:12:55;;;;;;;5.38;3.42;;;;;;;3.47;100.00;101261.72;5050240;28;20059;-84
2024/01/14 07:15:21;;;;;;;5.72;3.55;;;;;;;3.46;100.00;101267.06;5051943;28;20021;-82
2024/01/14 07:17:46;;;;;;;6.50;3.88;;;;;;;3.44;100.00;101267.16;5050243;28;20040;-83
2024/01/14 07:20:11;;;;;;;9.60;3.55;;;;;;;3.47;100.00;101269.63;5050893;28;20025;-82
2024/01/14 07:22:37;;;;;;;8.57;4.28;;;;;;;3.48;100.00;101275.75;5050968;28;20036;-82
2024/01/14 07:25:03;;;;;;;7.72;3.80;;;;;;;3.51;100.00;101270.31;5050717;28;20077;-82
2024/01/14 07:27:28;;;;;;;10.40;3.70;;;;;;;3.51;100.00;101268.53;5049819;28;20131;-82
2024/01/14 07:29:53;;;;;;;11.10;4.13;;;;;;;3.51;100.00;101271.16;5050134;28;20047;-83
2024/01/14 07:32:19;;;;;;;9.52;3.75;;;;;;;3.50;100.00;101266.81;5050767;28;20031;-82
2024/01/14 07:34:44;;;;;;;8.15;3.50;;;;;;;3.46;100.00;101273.19;5050432;28;20104;-83
2024/01/14 07:37:09;;;;;;;7.22;3.75;;;;;;;3.42;100.00;101274.28;5050587;28;20045;-82
2024/01/14 07:39:36;;;;;;;8.38;4.10;;;;;;;3.38;100.00;101272.75;5053001;28;20044;-82
2024/01/14 07:42:02;;;;;;;6.57;3.58;;;;;;;3.34;100.00;101274.72;5053942;28;20465;-82
2024/01/14 07:44:27;;;;;;;8.77;4.25;;;;;;;3.31;100.00;101274.00;5054522;28;20116;-83
2024/01/14 07:46:54;;;;;;;10.48;3.83;;;;;;;3.25;100.00;101276.97;5053793;28;20044;-82
2024/01/14 07:49:19;;;;;;;8.20;4.35;;;;;;;3.20;100.00;101273.72;5053387;28;20033;-83
2024/01/14 07:51:45;;;;;;;11.52;4.28;;;;;;;3.14;100.00;101267.84;5054053;28;20029;-80
2024/01/14 07:54:10;;;;;;;12.82;5.43;;;;;;;3.08;100.00;101278.69;5054312;28;20150;-80
2024/01/14 07:56:35;;;;;;;23.67;10.50;;;;;;;3.03;100.00;101275.47;5054385;28;20044;-78
2024/01/14 07:59:01;;;;;;;26.38;12.82;;;;;;;2.98;100.00;101288.81;5053823;28;20092;-81
2024/01/14 08:01:26;;;;;;;28.23;12.90;;;;;;;2.94;100.00;101283.81;5054286;28;20033;-81
2024/01/14 08:03:51;;;;;;;29.17;14.35;;;;;;;2.89;100.00;101283.19;5053727;28;20433;-77
2024/01/14 08:06:22;;;;;;;25.25;14.07;;;;;;;2.84;100.00;101286.06;5052707;28;20037;-80
2024/01/14 08:08:47;;;;;;;34.92;13.70;;;;;;;2.80;100.00;101284.53;5053543;28;20032;-81
2024/01/14 08:11:14;;;;;;;27.02;13.65;;;;;;;2.76;100.00;101285.59;5054047;28;20366;-81
2024/01/14 08:13:39;;;;;;;23.83;13.43;;;;;;;2.72;100.00;101287.53;5053576;28;20033;-82
2024/01/14 08:16:04;;;;;;;28.95;15.20;;;;;;;2.71;100.00;101282.38;5053250;28;20130;-80
2024/01/14 08:18:30;;;;;;;32.70;14.63;;;;;;;2.68;100.00;101286.00;5053714;28;20025;-80
2024/01/14 08:20:55;;;;;;;39.80;15.68;;;;;;;2.68;100.00;101279.91;5052094;28;20029;-79
2024/01/14 08:23:20;;;;;;;32.80;15.43;;;;;;;2.66;100.00;101285.22;5035301;28;20400;-79
2024/01/14 08:25:46;;;;;;;37.63;15.20;;;;;;;2.63;100.00;101283.59;5052862;28;20029;-79
2024/01/14 08:28:11;;;;;;;32.42;16.40;;;;;;;2.60;100.00;101278.50;5054007;28;20080;-80
2024/01/14 08:30:37;;;;;;;37.67;14.98;;;;;;;2.62;100.00;101279.25;5054491;28;20468;-81
2024/01/14 08:33:02;;;;;;;37.92;15.98;;;;;;;2.62;100.00;101274.00;5054353;28;20373;-80
2024/01/14 08:35:28;;;;;;;32.25;16.40;;;;;;;2.61;100.00;101269.69;5053150;28;20032;-81
2024/01/14 08:37:53;;;;;;;44.85;16.40;;;;;;;2.62;100.00;101271.38;5053848;28;20088;-80
2024/01/14 08:40:19;;;;;;;40.53;17.05;;;;;;;2.60;100.00;101264.53;5054478;28;20095;-80
2024/01/14 08:42:45;;;;;;;38.55;18.08;;;;;;;2.60;100.00;101267.16;5036474;28;20090;-81
2024/01/14 08:45:12;;;;;;;39.72;16.23;;;;;;;2.58;100.00;101263.72;5053873;28;20039;-81
2024/01/14 08:47:38;;;;;;;41.58;17.63;;;;;;;2.59;100.00;101263.66;5053940;28;20024;-81
2024/01/14 08:50:05;;;;;;;41.00;17.90;;;;;;;2.61;100.00;101264.44;5053292;28;20083;-81
2024/01/14 08:52:30;;;;;;;35.50;17.98;;;;;;;2.62;100.00;101257.41;5052781;28;20067;-81
2024/01/14 08:54:55;;;;;;;49.42;18.85;;;;;;;2.62;100.00;101252.97;5052515;28;20052;-80
2024/01/14 08:57:21;;;;;;;43.15;18.52;;;;;;;2.63;100.00;101252.06;5053952;28;20361;-81
2024/01/14 08:59:46;;;;;;;44.38;18.90;;;;;;;2.66;100.00;101256.31;5054144;28;20368;-80
2024/01/14 09:02:11;;;;;;;38.75;17.77;;;;;;;2.69;100.00;101250.03;5053518;28;20025;-80
2024/01/14 09:04:37;;;;;;;43.00;18.60;;;;;;;2.70;100.00;101251.75;5052873;28;20025;-80
2024/01/14 09:07:02;;;;;;;45.58;17.80;;;;;;;2.73;100.00;101246.34;5053430;28;20037;-80
2024/01/14 09:09:28;;;;;;;45.90;19.83;;;;;;;2.75;100.00;101236.63;5037121;28;20068;-82
2024/01/14 09:11:53;;;;;;;43.13;18.88;;;;;;;2.78;100.00;101237.28;5030838;28;20028;-81
2024/01/14 09:14:19;;;;;;;39.15;18.80;;;;;;;2.81;100.00;101236.28;5031045;28;20022;-79
2024/01/14 09:16:44;;;;;;;42.33;18.48;;;;;;;2.83;100.00;101237.88;5030026;28;20030;-81
2024/01/14 09:19:09;;;;;;;45.38;19.30;;;;;;;2.86;100.00;101230.78;5034881;28;20037;-80
2024/01/14 09:21:35;;;;;;;41.53;18.92;;;;;;;2.88;100.00;101232.41;5042784;28;20029;-81
2024/01/14 09:24:00;;;;;;;38.80;18.92;;;;;;;2.92;100.00;101226.06;5044095;28;20029;-82
2024/01/14 09:26:25;;;;;;;48.03;19.08;;;;;;;2.95;100.00;101225.88;5044738;28;20048;-79
2024/01/14 09:28:51;;;;;;;42.88;19.67;;;;;;;2.98;100.00;101225.72;5040264;28;20461;-83
2024/01/14 09:31:17;;;;;;;49.72;19.08;;;;;;;3.01;100.00;101227.34;5030201;28;20026;-80
2024/01/14 09:33:44;;;;;;;42.92;19.58;;;;;;;3.02;100.00;101223.81;5029110;28;20087;-80
2024/01/14 09:36:10;;;;;;;47.33;19.38;;;;;;;3.06;100.00;101225.34;5031063;28;20116;-82
2024/01/14 09:38:36;;;;;;;44.33;19.95;;;;;;;3.07;100.00;101220.94;5030658;28;20132;-80
2024/01/14 09:41:38;;;;;;;43.40;19.75;;;;;;;3.13;100.00;101218.81;5030307;28;20029;-80
2024/01/14 09:44:04;;;;;;;41.92;19.10;;;;;;;3.17;100.00;101214.25;5030090;28;20115;-80
2024/01/14 09:46:30;;;;;;;44.75;19.60;;;;;;;3.22;100.00;101216.63;5031161;28;20386;-81
2024/01/14 09:48:56;;;;;;;48.47;20.75;;;;;;;3.25;100.00;101216.47;5030967;28;20472;-82
2024/01/14 09:51:31;;;;;;;45.65;20.13;;;;;;;3.25;100.00;101219.94;5030134;28;20026;-81
2024/01/14 09:54:00;;;;;;;45.00;19.08;;;;;;;3.29;100.00;101218.00;5030301;28;20030;-80
2024/01/14 09:56:27;;;;;;;42.30;18.90;;;;;;;3.30;100.00;101223.19;5029834;28;20312;-80
2024/01/14 09:58:54;;;;;;;45.33;19.00;;;;;;;3.34;100.00;101213.34;5049358;28;20071;-81
2024/01/14 10:01:21;;;;;;;49.65;19.73;;;;;;;3.35;100.00;101217.66;5039525;28;20025;-83
2024/01/14 10:03:48;;;;;;;41.40;19.10;;;;;;;3.33;100.00;101209.03;5051111;28;20364;-80
2024/01/14 10:06:14;;;;;;;42.38;19.95;;;;;;;3.33;100.00;101215.13;5050759;28;20032;-82
2024/01/14 10:08:40;;;;;;;48.15;19.45;;;;;;;3.32;100.00;101204.69;5049860;28;20036;-82
2024/01/14 10:11:07;;;;;;;45.72;19.75;;;;;;;3.31;100.00;101205.63;5051161;28;20033;-84
2024/01/14 10:13:34;;;;;;;49.22;20.67;;;;;;;3.30;100.00;101209.16;5051210;28;20037;-82
2024/01/14 10:15:59;;;;;;;50.42;20.42;;;;;;;3.27;100.00;101209.34;5051239;28;20032;-85
2024/01/14 10:18:24;;;;;;;44.78;19.25;;;;;;;3.23;100.00;101208.66;5048985;28;20056;-84
2024/01/14 10:20:50;;;;;;;36.58;17.95;;;;;;;3.22;100.00;101201.69;5050962;28;20373;-85
2024/01/14 10:23:23;;;;;;;40.85;19.60;;;;;;;3.20;100.00;101198.31;5051608;28;20111;-86
2024/01/14 10:25:49;;;;;;;45.22;21.05;;;;;;;3.16;100.00;101189.75;5051751;28;20028;-82
2024/01/14 10:28:17;;;;;;;42.42;19.45;;;;;;;3.14;100.00;101188.97;5051425;28;20020;-85
2024/01/14 10:30:43;;;;;;;45.70;19.83;;;;;;;3.15;100.00;101189.81;5050754;28;20025;-86
2024/01/14 10:33:09;;;;;;;43.60;18.65;;;;;;;3.17;100.00;101183.53;5051725;28;20103;-84
2024/01/14 10:35:35;;;;;;;45.92;19.45;;;;;;;3.20;100.00;101177.28;5051772;28;20457;-85
2024/01/14 10:38:01;;;;;;;47.83;20.05;;;;;;;3.17;100.00;101180.91;5051792;28;20045;-85
2024/01/14 10:40:26;;;;;;;53.55;20.00;;;;;;;3.22;100.00;101182.44;5051443;28;20021;-83
2024/01/14 10:42:52;;;;;;;43.05;18.75;;;;;;;3.22;100.00;101172.75;5051898;28;20121;-85
2024/01/14 10:45:18;;;;;;;45.72;18.83;;;;;;;3.27;100.00;101175.13;5050775;28;20343;-82
2024/01/14 10:47:46;;;;;;;47.67;18.90;;;;;;;3.31;100.00;101166.16;5051621;28;20477;-79
2024/01/14 10:50:16;;;;;;;39.65;18.15;;;;;;;3.38;100.00;101157.00;5051257;28;20059;-83
2024/01/14 10:52:47;;;;;;;46.45;19.17;;;;;;;3.46;100.00;101153.94;5051904;28;20104;-83
2024/01/14 10:55:40;;;;;;;46.92;19.27;;;;;;;3.51;100.00;101146.66;5051891;28;20024;-86
2024/01/14 10:58:06;;;;;;;40.17;17.02;;;;;;;3.50;100.00;101143.16;5051643;28;20449;-83
2024/01/14 11:00:35;;;;;;;32.58;14.63;;;;;;;3.56;100.00;101133.25;5051437;28;20025;-83
2024/01/14 11:03:03;;;;;;;16.77;7.63;;;;;;;3.62;100.00;101131.09;5051385;28;20021;-83
2024/01/14 11:05:32;;;;;;;10.45;4.15;;;;;;;3.80;100.00;101123.09;5050944;28;20068;-82
2024/01/14 11:07:58;;;;;;;6.22;2.30;;;;;;;3.97;100.00;101108.94;5050305;28;20021;-83
2024/01/14 11:10:23;;;;;;;5.93;2.10;;;;;;;4.11;100.00;101101.09;5051463;28;20032;-80
2024/01/14 11:13:07;;;;;;;5.57;2.00;;;;;;;4.28;100.00;101100.06;5054140;28;20021;-81